Garupa, Argentina
Current Conditions -  °F | °C
As of 3:00 PM on Monday 26 Jan 2015 (Local Time) from SARP Reporting Station
Broken Clouds Broken Clouds  
Wind Chill: 31°   Ceiling: 20000
Heat Index: 36°   Visibility: 6mi
Dew Point: 24°   Wind: 5mph
Humidity: 66%   Direction: 50°NE
Pressure: 29.85"   Gusts: NA
Location:  27.48°S, 55.83°W
Report Text: SARP 261800Z 05004KT 9999 SCT020TCU SCT100BKN200 31/24 Q1011
Loading
Personal Weather Stations






























Interactive Weather Map New forecast layout! Learn more

10-Day Weather Forecast

Advertisements
Track Severe Weather on mobile